< < Back
Terminal Aerodrome Forecast


Current Version              Previous Versions:   1  2  3  4  5  6  7  8  9  

Terminal Aerodrome Forecast

482
FTUS42 KGSP 091729
TAFAVL
TAF
KAVL 091729Z 0918/1018 31013G21KT P6SM -SHSN SCT035 OVC050
     FM101200 33011KT P6SM SCT040 OVC060=

Latest METAR

374
SAUS70 KWBC 092000 RRB
MTRAVL
METAR KAVL 091954Z 35009KT 10SM OVC046 M03/M12 A2968 RMK AO2 SLP064
T10281117


USA.gov is the U.S. government's official web portal to all federal, state and local government web resources and services.